Itambe, Brazil
Current Conditions -  °F | °C
As of 6:00 AM on Saturday 22 Nov 2014 (Local Time) from SBJP Reporting Station
Overcast Overcast  
Wind Chill: 75°   Ceiling: 7000
Heat Index: 75°   Visibility: 6mi
Dew Point: 72°   Wind: 7mph
Humidity: 89%   Direction: 120°ESE
Pressure: 29.91"   Gusts: NA
Location:  7.41°S, 35.11°W
Report Text: SBJP 220900Z 12006KT 100V180 9999 FEW020 OVC070 24/22 Q1013
Loading
Personal Weather Stations






























Interactive Weather Map New forecast layout! Learn more

10-Day Weather Forecast

Advertisements
Track Severe Weather on mobile